Time;durP1;ratioP1;P1;durP2;ratioP2;P2;SDS_P1;SDS_P2;PMS_P1;PMS_P2;Temp;Humidity;BMP_temperature;BMP_pressure;BME280_temperature;BME280_humidity;BME280_pressure;Samples;Min_cycle;Max_cycle;Signal;HPM_P1;HPM_P2
2021/03/11 00:02:24;;;;;;;15.10;11.33;;;6.80;96.30;;;;;;4899602;29;20541;-92
2021/03/11 00:04:50;;;;;;;15.47;12.43;;;6.80;96.10;;;;;;4905876;29;20220;-93
2021/03/11 00:07:16;;;;;;;15.10;11.50;;;6.80;96.20;;;;;;4915136;29;20261;-90
2021/03/11 00:09:42;;;;;;;17.73;12.20;;;6.80;96.20;;;;;;4903904;29;20207;-92
2021/03/11 00:12:09;;;;;;;12.47;11.13;;;6.80;96.20;;;;;;4903822;29;20829;-92
2021/03/11 00:14:36;;;;;;;14.10;11.20;;;6.80;95.90;;;;;;4906751;29;20447;-92
2021/03/11 00:17:06;;;;;;;14.70;12.00;;;6.80;95.90;;;;;;4904189;29;20493;-91
2021/03/11 00:19:32;;;;;;;11.73;9.93;;;6.90;95.80;;;;;;4904652;29;20614;-93
2021/03/11 00:21:58;;;;;;;15.10;10.97;;;6.90;95.70;;;;;;4902162;29;20486;-92
2021/03/11 00:24:24;;;;;;;13.23;10.27;;;6.90;95.60;;;;;;4896354;29;21149;-92
2021/03/11 00:26:50;;;;;;;14.07;10.13;;;6.90;95.20;;;;;;4901469;29;20284;-93
2021/03/11 00:29:16;;;;;;;12.47;10.70;;;6.90;95.30;;;;;;4916213;29;20455;-94
2021/03/11 00:31:42;;;;;;;13.10;10.80;;;6.90;95.30;;;;;;4902976;29;20507;-92
2021/03/11 00:34:08;;;;;;;12.20;10.50;;;7.00;95.10;;;;;;4900681;29;20881;-91
2021/03/11 00:36:33;;;;;;;12.83;11.10;;;7.00;95.60;;;;;;4903654;29;20329;-92
2021/03/11 00:38:59;;;;;;;11.93;10.17;;;6.90;96.20;;;;;;4906924;29;20564;-91
2021/03/11 00:41:25;;;;;;;14.13;10.33;;;6.80;96.60;;;;;;4899002;29;20671;-91
2021/03/11 00:43:50;;;;;;;14.43;10.90;;;6.90;96.20;;;;;;4904648;29;20203;-91
2021/03/11 00:46:16;;;;;;;13.43;10.30;;;6.90;96.50;;;;;;4901512;29;20397;-92
2021/03/11 00:48:42;;;;;;;17.00;11.00;;;6.90;95.60;;;;;;4904193;29;20220;-92
2021/03/11 00:51:07;;;;;;;13.93;10.67;;;6.90;95.80;;;;;;4905253;29;21018;-93
2021/03/11 00:53:33;;;;;;;12.90;10.17;;;6.90;95.70;;;;;;4906958;29;20184;-92
2021/03/11 00:55:59;;;;;;;11.23;9.40;;;6.90;95.50;;;;;;4907765;29;20216;-92
2021/03/11 00:58:24;;;;;;;11.40;9.60;;;7.00;95.50;;;;;;4906173;29;20335;-91
2021/03/11 01:00:50;;;;;;;11.20;9.90;;;7.00;94.90;;;;;;4908135;29;20224;-92
2021/03/11 01:03:16;;;;;;;14.53;11.07;;;7.00;94.90;;;;;;4906942;29;20239;-92
2021/03/11 01:05:41;;;;;;;11.10;9.77;;;7.00;94.70;;;;;;4907153;29;20200;-91
2021/03/11 01:08:07;;;;;;;11.57;9.00;;;7.10;94.50;;;;;;4902922;29;20465;-91
2021/03/11 01:10:37;;;;;;;9.77;8.77;;;7.00;94.70;;;;;;4903495;29;20552;-90
2021/03/11 01:13:04;;;;;;;10.83;9.00;;;7.10;94.10;;;;;;4899630;29;20199;-90
2021/03/11 01:15:36;;;;;;;12.90;9.73;;;7.20;93.80;;;;;;4903043;29;20452;-89
2021/03/11 01:18:02;;;;;;;10.83;8.40;;;7.30;93.70;;;;;;4901454;29;20458;-89
2021/03/11 01:20:28;;;;;;;13.10;10.40;;;7.40;93.30;;;;;;4900970;29;20463;-88
2021/03/11 01:22:53;;;;;;;11.17;8.90;;;7.40;93.30;;;;;;4905714;29;20451;-86
2021/03/11 01:25:19;;;;;;;9.70;8.70;;;7.40;93.50;;;;;;4914659;29;20191;-88
2021/03/11 01:27:45;;;;;;;10.80;9.20;;;7.40;93.70;;;;;;4898888;29;20188;-90
2021/03/11 01:30:11;;;;;;;11.23;8.73;;;7.40;94.10;;;;;;4902561;29;20249;-90
2021/03/11 01:32:37;;;;;;;11.37;9.17;;;7.40;94.70;;;;;;4896680;29;20287;-90
2021/03/11 01:35:03;;;;;;;10.80;9.03;;;7.40;95.20;;;;;;4900232;29;20841;-90
2021/03/11 01:37:29;;;;;;;11.80;9.00;;;7.30;95.60;;;;;;4905004;29;20251;-90
2021/03/11 01:39:57;;;;;;;14.03;8.20;;;7.30;95.90;;;;;;4903917;29;20496;-90
2021/03/11 01:42:22;;;;;;;10.57;8.27;;;7.30;95.90;;;;;;4894467;29;20254;-90
2021/03/11 01:44:48;;;;;;;11.03;8.50;;;7.30;96.20;;;;;;4900287;29;20445;-90
2021/03/11 01:47:14;;;;;;;11.40;8.87;;;7.40;95.80;;;;;;4904614;29;20657;-90
2021/03/11 01:49:40;;;;;;;11.60;9.50;;;7.40;95.80;;;;;;4905314;29;20194;-89
2021/03/11 01:52:06;;;;;;;10.10;8.00;;;7.50;95.50;;;;;;4897029;29;20191;-88
2021/03/11 01:54:33;;;;;;;11.50;7.97;;;7.60;95.20;;;;;;4895999;29;20265;-89
2021/03/11 01:57:02;;;;;;;9.57;8.57;;;7.60;95.10;;;;;;4903682;29;20823;-89
2021/03/11 01:59:28;;;;;;;10.30;8.10;;;7.60;94.70;;;;;;4899692;29;20994;-89
2021/03/11 02:01:58;;;;;;;9.97;8.37;;;7.60;94.40;;;;;;4898757;29;20465;-89
2021/03/11 02:04:27;;;;;;;11.20;8.33;;;7.60;94.40;;;;;;4904335;29;20446;-88
2021/03/11 02:06:52;;;;;;;9.73;8.50;;;7.60;94.60;;;;;;4909929;29;20556;-89
2021/03/11 02:09:19;;;;;;;11.07;7.80;;;7.50;94.70;;;;;;4898751;29;20542;-89
2021/03/11 02:12:13;;;;;;;12.90;8.80;;;7.50;94.70;;;;;;4901202;29;20649;-89
2021/03/11 02:14:42;;;;;;;12.13;8.43;;;7.50;94.70;;;;;;4904967;29;20446;-88
2021/03/11 02:17:09;;;;;;;11.33;7.87;;;7.50;94.60;;;;;;4909447;29;20538;-88
2021/03/11 02:19:57;;;;;;;11.80;9.30;;;7.50;94.50;;;;;;4902294;29;20462;-90
2021/03/11 02:23:00;;;;;;;11.30;8.33;;;7.50;94.70;;;;;;4910681;29;20449;-90
2021/03/11 02:25:51;;;;;;;11.33;8.33;;;7.50;94.60;;;;;;4900549;29;20545;-90
2021/03/11 02:28:33;;;;;;;14.23;8.23;;;7.40;94.60;;;;;;4898710;29;24134;-88
2021/03/11 02:30:59;;;;;;;10.20;8.10;;;7.40;94.90;;;;;;4903921;29;20586;-90
2021/03/11 02:33:28;;;;;;;11.20;8.77;;;7.40;95.20;;;;;;4901775;29;20541;-90
2021/03/11 02:35:59;;;;;;;12.60;9.20;;;7.40;95.30;;;;;;4911321;29;20478;-89
2021/03/11 02:38:27;;;;;;;12.70;9.87;;;7.40;95.30;;;;;;4900943;29;20493;-90
2021/03/11 02:40:58;;;;;;;13.20;10.37;;;7.30;95.00;;;;;;4905537;29;20921;-90
2021/03/11 02:43:24;;;;;;;11.90;9.53;;;7.30;94.90;;;;;;4898006;29;20478;-90
2021/03/11 02:45:55;;;;;;;11.67;9.90;;;7.40;94.60;;;;;;4903767;29;20445;-89
2021/03/11 02:48:21;;;;;;;11.20;8.40;;;7.40;95.00;;;;;;4896052;29;20441;-89
2021/03/11 02:50:47;;;;;;;10.50;8.67;;;7.40;94.30;;;;;;4900443;29;20461;-90
2021/03/11 02:53:13;;;;;;;10.23;7.60;;;7.40;94.40;;;;;;4898148;29;20494;-89
2021/03/11 02:55:42;;;;;;;10.80;9.20;;;7.50;93.60;;;;;;4901083;29;20479;-90
2021/03/11 02:58:12;;;;;;;12.33;8.00;;;7.50;93.60;;;;;;4906741;29;20860;-91
2021/03/11 03:00:40;;;;;;;11.80;7.57;;;7.50;93.40;;;;;;4899062;29;20475;-90
2021/03/11 03:03:09;;;;;;;11.20;8.60;;;7.60;93.00;;;;;;4901424;29;20481;-89
2021/03/11 03:05:36;;;;;;;9.77;7.20;;;7.70;92.60;;;;;;4901230;29;20462;-90
2021/03/11 03:08:03;;;;;;;8.90;6.53;;;7.70;92.20;;;;;;4903944;29;20481;-89
2021/03/11 03:10:31;;;;;;;9.57;7.27;;;7.80;91.90;;;;;;4903419;29;20470;-90
2021/03/11 03:13:04;;;;;;;10.53;8.13;;;7.90;91.80;;;;;;4895637;29;20825;-89
2021/03/11 03:15:30;;;;;;;8.40;6.93;;;8.00;91.60;;;;;;4901664;29;20464;-91
2021/03/11 03:17:57;;;;;;;9.30;6.70;;;8.00;91.60;;;;;;4912532;29;20549;-90
2021/03/11 03:20:24;;;;;;;8.60;6.70;;;8.00;91.60;;;;;;4900026;29;20941;-90
2021/03/11 03:22:52;;;;;;;7.87;6.07;;;8.10;91.60;;;;;;4912086;29;20453;-89
2021/03/11 03:25:19;;;;;;;8.27;6.80;;;8.10;91.40;;;;;;4916519;29;20446;-91
2021/03/11 03:27:52;;;;;;;8.60;6.50;;;8.10;91.40;;;;;;4905348;29;20451;-90
2021/03/11 03:30:18;;;;;;;6.47;5.77;;;8.10;91.60;;;;;;4885771;29;20474;-89
2021/03/11 03:32:51;;;;;;;7.83;6.00;;;8.10;91.70;;;;;;4900360;29;20517;-89
2021/03/11 03:35:23;;;;;;;7.10;5.60;;;8.10;91.60;;;;;;4899300;29;20451;-89
2021/03/11 03:37:51;;;;;;;6.90;5.53;;;8.10;91.70;;;;;;4896429;29;20499;-89
2021/03/11 03:40:18;;;;;;;7.90;5.93;;;8.10;91.90;;;;;;4902292;29;20474;-90
2021/03/11 03:43:10;;;;;;;7.17;5.53;;;8.10;92.30;;;;;;4896315;29;20447;-91
2021/03/11 03:45:41;;;;;;;7.10;5.77;;;8.10;92.70;;;;;;4914122;29;20462;-89
2021/03/11 03:48:12;;;;;;;7.20;6.37;;;8.10;92.80;;;;;;4902289;29;20448;-89
2021/03/11 03:50:38;;;;;;;7.90;6.33;;;8.10;93.10;;;;;;4898165;29;20448;-88
2021/03/11 03:53:18;;;;;;;6.33;5.40;;;8.10;92.90;;;;;;4899044;29;20476;-91
2021/03/11 03:55:59;;;;;;;6.53;5.40;;;8.00;92.80;;;;;;4910190;29;20490;-91
2021/03/11 04:01:08;;;;;;;9.80;5.70;;;8.10;92.90;;;;;;4916243;29;20789;-90
2021/03/11 04:03:34;;;;;;;8.80;4.43;;;8.20;92.60;;;;;;4897214;29;20543;-88
2021/03/11 04:06:00;;;;;;;6.80;4.50;;;8.20;92.60;;;;;;4903454;29;20514;-89
2021/03/11 04:08:28;;;;;;;7.13;5.10;;;8.30;92.80;;;;;;4898924;29;20810;-90
2021/03/11 04:10:53;;;;;;;7.20;4.60;;;8.30;92.90;;;;;;4904742;29;20479;-90
2021/03/11 04:13:20;;;;;;;4.90;4.40;;;8.30;93.10;;;;;;4904682;29;20452;-90
2021/03/11 04:15:47;;;;;;;5.80;4.30;;;8.30;93.30;;;;;;4899229;29;20227;-91
2021/03/11 04:18:13;;;;;;;6.63;4.73;;;8.30;93.30;;;;;;4903659;29;20534;-91
2021/03/11 04:20:39;;;;;;;4.97;4.47;;;8.30;93.20;;;;;;4904709;29;20447;-93
2021/03/11 04:23:06;;;;;;;5.20;4.47;;;8.30;93.20;;;;;;4922321;29;20455;-90
2021/03/11 04:25:32;;;;;;;4.50;3.93;;;8.30;93.10;;;;;;4893953;29;20461;-91
2021/03/11 04:27:58;;;;;;;5.90;4.17;;;8.40;93.10;;;;;;4900515;29;20689;-91
2021/03/11 04:30:24;;;;;;;4.60;4.10;;;8.40;93.20;;;;;;4895987;29;21046;-89
2021/03/11 04:32:52;;;;;;;4.07;3.67;;;8.40;93.20;;;;;;4905584;29;20819;-90
2021/03/11 04:35:18;;;;;;;5.13;3.87;;;8.40;93.40;;;;;;4898142;29;20968;-91
2021/03/11 04:37:47;;;;;;;5.80;4.17;;;8.50;93.40;;;;;;4900158;29;20490;-90
2021/03/11 04:40:16;;;;;;;4.70;3.50;;;8.50;93.50;;;;;;4899517;29;20199;-91
2021/03/11 04:42:42;;;;;;;4.90;3.60;;;8.50;93.70;;;;;;4899616;29;20526;-91
2021/03/11 04:45:13;;;;;;;4.67;4.00;;;8.50;93.80;;;;;;4901793;29;20445;-92
2021/03/11 04:47:46;;;;;;;5.23;3.60;;;8.50;93.90;;;;;;4903624;29;20531;-91
2021/03/11 04:50:17;;;;;;;5.20;3.90;;;8.50;94.10;;;;;;4912251;29;20474;-91
2021/03/11 04:52:45;;;;;;;5.37;3.40;;;8.50;94.20;;;;;;4916176;29;20553;-91
2021/03/11 04:55:11;;;;;;;4.80;3.73;;;8.60;94.40;;;;;;4901745;29;20830;-90
2021/03/11 04:57:36;;;;;;;4.00;3.40;;;8.60;94.60;;;;;;4903193;29;20487;-91
2021/03/11 05:00:06;;;;;;;6.03;3.60;;;8.70;94.90;;;;;;4920698;29;24496;-92
2021/03/11 05:02:36;;;;;;;4.80;3.40;;;8.70;95.30;;;;;;4903413;29;20260;-91
2021/03/11 05:05:07;;;;;;;5.47;3.30;;;8.70;95.70;;;;;;4902063;29;20953;-90
2021/03/11 05:07:33;;;;;;;3.37;3.07;;;8.70;95.90;;;;;;4912587;29;20860;-91
2021/03/11 05:09:59;;;;;;;3.37;3.07;;;8.80;96.10;;;;;;4905581;29;20449;-90
2021/03/11 05:12:24;;;;;;;4.50;3.30;;;8.80;96.30;;;;;;4899415;29;20546;-90
2021/03/11 05:14:50;;;;;;;3.50;2.60;;;8.90;96.60;;;;;;4895773;29;20196;-89
2021/03/11 05:17:15;;;;;;;3.50;3.17;;;8.90;96.90;;;;;;4898871;29;20838;-89
2021/03/11 05:19:41;;;;;;;5.17;2.90;;;8.90;97.20;;;;;;4902539;29;20207;-89
2021/03/11 05:22:09;;;;;;;4.17;3.00;;;9.00;97.50;;;;;;4914936;29;20790;-89
2021/03/11 05:24:34;;;;;;;12.07;2.80;;;9.10;97.80;;;;;;4913165;29;20289;-90
2021/03/11 05:27:00;;;;;;;2.43;2.13;;;9.10;98.00;;;;;;4898375;29;20479;-88
2021/03/11 05:29:26;;;;;;;4.40;3.70;;;9.30;98.50;;;;;;4902697;29;20302;-91
2021/03/11 05:31:51;;;;;;;4.37;2.63;;;9.30;98.70;;;;;;4902860;29;20677;-90
2021/03/11 05:34:17;;;;;;;4.47;3.00;;;9.30;98.90;;;;;;4905551;29;20210;-91
2021/03/11 05:36:43;;;;;;;2.87;2.57;;;9.30;99.00;;;;;;4900761;29;20224;-91
2021/03/11 05:39:09;;;;;;;4.67;3.07;;;9.30;99.00;;;;;;4901084;29;20587;-91
2021/03/11 05:41:38;;;;;;;2.93;2.27;;;9.30;99.30;;;;;;4903956;29;20223;-90
2021/03/11 05:44:07;;;;;;;3.13;2.70;;;9.40;99.40;;;;;;4900507;29;20463;-91
2021/03/11 05:46:46;;;;;;;3.20;2.63;;;9.40;99.50;;;;;;4904630;29;20480;-91
2021/03/11 05:49:12;;;;;;;2.90;2.20;;;9.40;99.60;;;;;;4902615;29;20450;-91
2021/03/11 05:51:39;;;;;;;3.20;2.90;;;9.40;99.60;;;;;;4905261;29;20851;-94
2021/03/11 05:54:05;;;;;;;3.33;3.03;;;9.40;99.70;;;;;;4904350;29;20458;-93
2021/03/11 05:56:31;;;;;;;2.70;2.50;;;9.40;99.80;;;;;;4907579;29;20475;-94
2021/03/11 05:58:57;;;;;;;3.50;2.40;;;9.40;99.70;;;;;;4909451;29;20523;-95
2021/03/11 06:01:29;;;;;;;2.87;2.57;;;9.40;99.80;;;;;;4915219;29;20531;-96
2021/03/11 06:03:55;;;;;;;3.43;2.63;;;9.40;99.90;;;;;;4908087;29;20452;-95
2021/03/11 06:06:22;;;;;;;6.20;2.50;;;9.40;99.60;;;;;;4910643;29;20440;-92
2021/03/11 06:08:53;;;;;;;3.10;2.40;;;9.40;99.80;;;;;;4902620;29;22002;-94
2021/03/11 06:11:19;;;;;;;3.13;2.37;;;9.40;99.80;;;;;;4923385;29;20431;-94
2021/03/11 06:13:46;;;;;;;2.60;2.40;;;9.40;99.50;;;;;;4907635;29;20511;-94
2021/03/11 06:16:18;;;;;;;4.63;2.63;;;9.40;99.80;;;;;;4907166;29;20471;-95
2021/03/11 06:18:47;;;;;;;3.90;2.83;;;9.40;99.90;;;;;;4911077;29;21740;-93
2021/03/11 06:21:13;;;;;;;4.43;2.80;;;9.40;99.90;;;;;;4906210;29;21040;-93
2021/03/11 06:23:38;;;;;;;3.30;2.77;;;9.40;99.90;;;;;;4910760;29;20462;-93
2021/03/11 06:26:06;;;;;;;3.30;3.00;;;9.50;99.90;;;;;;4906330;29;20231;-94
2021/03/11 06:28:44;;;;;;;4.13;2.70;;;9.50;99.90;;;;;;4914228;29;20223;-91
2021/03/11 06:31:38;;;;;;;3.20;2.73;;;9.60;99.90;;;;;;4918635;29;21020;-96
2021/03/11 06:34:18;;;;;;;3.47;3.00;;;9.60;99.90;;;;;;4904322;29;20470;-95
2021/03/11 06:36:44;;;;;;;2.10;2.00;;;9.60;99.90;;;;;;4905932;29;20480;-94
2021/03/11 06:39:31;;;;;;;4.43;2.90;;;9.60;99.90;;;;;;4909676;29;20432;-94
2021/03/11 06:42:00;;;;;;;3.00;2.70;;;9.60;99.90;;;;;;4907514;29;20442;-95
2021/03/11 06:44:43;;;;;;;4.40;2.80;;;9.60;99.90;;;;;;4907377;29;21034;-95
2021/03/11 06:47:18;;;;;;;3.93;2.80;;;9.60;99.90;;;;;;4906446;29;20487;-95
2021/03/11 06:49:58;;;;;;;3.30;2.90;;;9.60;99.90;;;;;;4906402;29;20490;-92
2021/03/11 06:52:24;;;;;;;7.30;2.53;;;9.60;99.90;;;;;;4925640;29;20472;-94
2021/03/11 06:55:00;;;;;;;3.37;3.07;;;9.60;99.90;;;;;;4906761;29;20536;-93
2021/03/11 06:57:28;;;;;;;3.70;2.97;;;9.50;99.90;;;;;;4922354;29;20515;-95
2021/03/11 06:59:55;;;;;;;3.67;2.97;;;9.50;99.90;;;;;;4914109;29;20457;-94
2021/03/11 07:02:25;;;;;;;4.87;3.20;;;9.50;99.90;;;;;;4905958;29;20485;-93
2021/03/11 07:04:50;;;;;;;4.70;2.70;;;9.50;99.90;;;;;;4917215;29;20440;-94
2021/03/11 07:07:21;;;;;;;7.83;2.47;;;9.50;99.90;;;;;;4907383;29;20474;-95
2021/03/11 07:09:48;;;;;;;3.83;2.27;;;9.50;99.90;;;;;;4906398;29;20252;-94
2021/03/11 07:12:15;;;;;;;4.00;2.40;;;9.60;99.90;;;;;;4910158;29;20838;-94
2021/03/11 07:14:41;;;;;;;2.90;2.70;;;9.70;99.90;;;;;;4905172;29;20451;-93
2021/03/11 07:17:24;;;;;;;5.10;2.00;;;9.70;99.90;;;;;;4901661;29;20511;-93
2021/03/11 07:20:11;;;;;;;2.30;2.07;;;9.80;99.90;;;;;;4906746;29;21048;-94
2021/03/11 07:22:37;;;;;;;3.20;2.30;;;10.00;99.90;;;;;;4905802;29;20491;-95
2021/03/11 07:25:24;;;;;;;4.10;2.60;;;10.10;99.90;;;;;;4911686;29;20431;-94
2021/03/11 07:28:00;;;;;;;2.63;2.33;;;10.20;99.80;;;;;;4906146;29;20781;-93
2021/03/11 07:30:49;;;;;;;2.80;2.03;;;10.20;99.50;;;;;;4940147;28;20443;-95
2021/03/11 07:33:24;;;;;;;2.97;2.30;;;10.30;99.20;;;;;;4932065;29;20446;-95
2021/03/11 07:35:55;;;;;;;2.00;1.80;;;10.40;99.00;;;;;;4929756;28;20489;-96
2021/03/11 08:11:56;;;;;;;2.63;2.10;;;11.00;97.60;;;;;;4896619;29;20499;-92
2021/03/11 08:17:35;;;;;;;4.03;1.97;;;11.10;97.30;;;;;;4908780;29;20499;-94
2021/03/11 08:20:07;;;;;;;2.10;1.90;;;11.20;97.50;;;;;;4894924;29;20483;-93
2021/03/11 08:22:55;;;;;;;1.93;1.70;;;11.20;97.40;;;;;;4899749;29;20454;-96
2021/03/11 08:25:33;;;;;;;2.47;2.00;;;11.30;97.00;;;;;;4887908;29;20491;-96
2021/03/11 08:28:11;;;;;;;4.17;1.90;;;11.30;96.90;;;;;;4900924;29;20546;-93
2021/03/11 08:30:37;;;;;;;2.97;2.10;;;11.40;96.70;;;;;;4895196;29;20970;-95
2021/03/11 08:33:04;;;;;;;2.70;2.10;;;11.40;96.40;;;;;;4902901;29;20467;-93
2021/03/11 08:35:36;;;;;;;2.27;2.07;;;11.50;96.40;;;;;;4903008;29;21145;-93
2021/03/11 08:38:26;;;;;;;2.30;2.10;;;11.60;96.50;;;;;;4886117;29;20562;-94
2021/03/11 08:41:03;;;;;;;2.57;1.70;;;11.60;96.10;;;;;;4892371;29;20452;-94
2021/03/11 08:43:39;;;;;;;1.93;1.83;;;11.60;96.30;;;;;;4884210;29;20464;-95
2021/03/11 08:46:29;;;;;;;4.43;2.10;;;11.70;96.10;;;;;;4885710;29;20444;-94
2021/03/11 08:48:58;;;;;;;5.53;2.20;;;11.80;95.90;;;;;;4887714;29;20476;-95
2021/03/11 08:51:23;;;;;;;3.37;1.87;;;11.90;95.80;;;;;;4889312;29;20465;-93
2021/03/11 08:53:56;;;;;;;5.03;2.00;;;12.00;96.10;;;;;;4884953;29;20508;-95
2021/03/11 08:56:22;;;;;;;5.40;2.23;;;11.90;95.70;;;;;;4885975;29;20243;-91
2021/03/11 08:58:54;;;;;;;2.30;1.87;;;12.00;95.90;;;;;;4909455;29;20440;-95
2021/03/11 09:01:39;;;;;;;1.60;1.50;;;12.10;95.80;;;;;;4909955;29;20262;-91
2021/03/11 09:04:29;;;;;;;2.53;1.70;;;12.10;95.90;;;;;;4887677;29;20456;-88
2021/03/11 09:06:59;;;;;;;1.53;1.23;;;12.20;96.30;;;;;;4887576;29;20535;-93
2021/03/11 09:09:49;;;;;;;2.27;1.80;;;12.30;96.40;;;;;;4909961;29;20453;-95
2021/03/11 09:12:21;;;;;;;1.40;1.13;;;12.50;96.30;;;;;;4892595;29;20483;-92
2021/03/11 09:17:31;;;;;;;7.70;1.87;;;12.80;95.80;;;;;;5117973;23;20495;-95
2021/03/11 09:20:05;;;;;;;1.90;1.30;;;12.90;95.80;;;;;;4899108;29;20538;-91
2021/03/11 09:22:39;;;;;;;1.43;1.30;;;13.00;95.60;;;;;;4902107;29;20888;-94
2021/03/11 09:25:07;;;;;;;4.93;1.83;;;13.10;95.60;;;;;;4906147;29;21016;-89
2021/03/11 09:27:34;;;;;;;2.50;1.77;;;13.20;95.80;;;;;;4903089;29;20984;-89
2021/03/11 09:30:06;;;;;;;4.53;1.40;;;13.10;95.50;;;;;;4904249;29;20463;-95
2021/03/11 09:32:37;;;;;;;1.63;1.50;;;13.00;95.50;;;;;;4918745;29;20467;-91
2021/03/11 09:35:14;;;;;;;1.83;1.60;;;13.10;95.70;;;;;;4903553;29;20440;-92
2021/03/11 09:37:45;;;;;;;1.23;1.13;;;13.10;96.00;;;;;;4903451;29;20494;-94
2021/03/11 09:40:16;;;;;;;1.57;1.20;;;13.10;95.60;;;;;;4912032;29;20435;-94
2021/03/11 09:43:17;;;;;;;1.40;1.30;;;13.10;95.50;;;;;;4910253;29;20448;-96
2021/03/11 09:45:47;;;;;;;2.93;1.53;;;13.20;95.30;;;;;;4852873;29;21026;-95
2021/03/11 09:48:18;;;;;;;1.50;1.40;;;13.20;95.30;;;;;;4898489;29;20443;-93
2021/03/11 09:50:55;;;;;;;3.73;1.30;;;13.40;95.60;;;;;;4902861;29;20498;-91
2021/03/11 09:53:31;;;;;;;1.43;1.20;;;13.50;95.30;;;;;;4908844;29;21428;-94
2021/03/11 09:55:57;;;;;;;2.10;1.50;;;13.70;94.70;;;;;;4898810;29;20474;-91
2021/03/11 09:58:23;;;;;;;2.80;1.30;;;13.80;94.90;;;;;;4898845;29;20870;-92
2021/03/11 10:00:50;;;;;;;2.70;1.40;;;13.80;94.30;;;;;;4903096;29;20200;-95
2021/03/11 10:03:30;;;;;;;1.63;1.30;;;13.70;94.70;;;;;;4890640;29;20447;-93
2021/03/11 10:05:55;;;;;;;1.27;1.07;;;13.80;94.80;;;;;;4905397;29;20488;-94
2021/03/11 10:08:31;;;;;;;1.40;1.30;;;13.60;94.60;;;;;;4905166;29;20440;-93
2021/03/11 10:11:09;;;;;;;3.30;1.13;;;13.60;94.90;;;;;;4904084;29;20202;-92
2021/03/11 10:14:02;;;;;;;1.00;0.93;;;13.50;95.20;;;;;;4901179;29;20848;-90
2021/03/11 10:16:31;;;;;;;2.10;1.10;;;13.40;95.50;;;;;;4917810;29;20486;-93
2021/03/11 10:19:36;;;;;;;3.00;1.13;;;13.40;95.60;;;;;;4903327;29;20572;-94
2021/03/11 10:22:10;;;;;;;1.00;0.90;;;13.40;95.90;;;;;;4905381;29;21067;-92
2021/03/11 10:24:48;;;;;;;2.93;1.37;;;13.40;95.80;;;;;;4903854;29;20550;-93
2021/03/11 10:27:24;;;;;;;1.47;1.10;;;13.40;95.80;;;;;;4904515;29;20498;-92
2021/03/11 10:30:08;;;;;;;1.47;1.17;;;13.40;95.80;;;;;;4902787;29;20487;-92
2021/03/11 10:32:35;;;;;;;1.90;1.20;;;13.50;95.90;;;;;;4918978;29;20455;-90
2021/03/11 10:35:02;;;;;;;1.23;1.13;;;13.60;96.00;;;;;;4900537;29;20640;-91
2021/03/11 10:37:34;;;;;;;1.43;1.00;;;13.60;96.00;;;;;;4901018;29;20571;-92
2021/03/11 10:40:09;;;;;;;1.53;1.10;;;13.60;96.10;;;;;;4898727;29;20800;-91
2021/03/11 10:42:39;;;;;;;1.20;1.10;;;13.60;96.20;;;;;;4901898;29;20507;-90
2021/03/11 10:45:06;;;;;;;1.27;0.90;;;13.70;96.30;;;;;;4921531;29;20428;-94
2021/03/11 10:47:31;;;;;;;0.80;0.80;;;13.80;96.30;;;;;;4898217;29;20451;-95
2021/03/11 10:49:57;;;;;;;1.87;1.20;;;13.90;96.20;;;;;;4908622;29;20452;-96
2021/03/11 10:52:23;;;;;;;1.13;0.67;;;14.10;95.90;;;;;;4906651;29;20211;-96
2021/03/11 10:54:49;;;;;;;1.23;1.13;;;14.20;96.10;;;;;;4906069;29;20459;-96
2021/03/11 10:57:21;;;;;;;1.80;0.80;;;14.50;96.00;;;;;;4902322;29;20227;-91
2021/03/11 11:02:27;;;;;;;0.77;0.57;;;15.10;95.40;;;;;;5063950;23;20502;-91
2021/03/11 11:04:54;;;;;;;0.67;0.67;;;14.70;95.30;;;;;;4902629;29;20455;-93
2021/03/11 11:07:20;;;;;;;3.40;0.90;;;14.60;96.00;;;;;;4907059;29;20443;-93
2021/03/11 11:10:12;;;;;;;0.70;0.70;;;14.50;96.30;;;;;;4904424;29;21052;-93
2021/03/11 11:15:37;;;;;;;1.53;0.70;;;14.50;96.80;;;;;;4917393;29;20546;-93
2021/03/11 11:18:05;;;;;;;0.60;0.57;;;14.40;96.90;;;;;;4911963;29;21017;-92
2021/03/11 11:20:43;;;;;;;0.70;0.70;;;14.30;97.00;;;;;;4904029;29;20832;-91
2021/03/11 11:23:14;;;;;;;0.77;0.67;;;14.20;97.50;;;;;;4902508;29;20693;-91
2021/03/11 11:25:41;;;;;;;2.63;0.80;;;14.10;97.90;;;;;;4899852;29;20491;-93
2021/03/11 11:28:07;;;;;;;0.83;0.83;;;14.00;98.50;;;;;;4906875;29;20490;-92
2021/03/11 11:30:33;;;;;;;1.27;0.97;;;13.90;99.70;;;;;;4917521;29;20207;-94
2021/03/11 11:33:00;;;;;;;1.67;1.30;;;13.80;99.90;;;;;;4904599;29;20184;-91
2021/03/11 11:35:26;;;;;;;2.83;1.37;;;13.70;99.90;;;;;;4904182;29;20458;-91
2021/03/11 11:38:05;;;;;;;2.17;1.53;;;13.60;99.90;;;;;;4902840;29;20476;-93
2021/03/11 11:40:31;;;;;;;2.40;1.67;;;13.50;99.90;;;;;;4913261;29;20207;-93
2021/03/11 11:43:00;;;;;;;1.20;1.10;;;13.40;99.90;;;;;;4908401;29;20487;-91
2021/03/11 11:45:27;;;;;;;1.43;1.33;;;13.10;99.90;;;;;;4910610;29;20191;-88
2021/03/11 11:47:52;;;;;;;2.00;1.43;;;12.80;99.90;;;;;;4907186;29;20445;-95
2021/03/11 11:50:19;;;;;;;1.37;1.10;;;12.50;99.90;;;;;;4905913;29;20443;-93
2021/03/11 11:52:44;;;;;;;1.33;1.10;;;12.40;99.90;;;;;;4906134;29;20203;-91
2021/03/11 11:55:11;;;;;;;1.00;0.73;;;12.30;99.90;;;;;;4909659;29;20466;-94
2021/03/11 11:57:41;;;;;;;5.53;4.83;;;12.20;99.90;;;;;;4908296;29;20226;-92
2021/03/11 12:00:09;;;;;;;0.90;0.90;;;12.20;99.90;;;;;;4910342;29;20443;-92
2021/03/11 12:02:36;;;;;;;1.50;1.40;;;12.10;99.90;;;;;;4907761;29;20474;-92
2021/03/11 12:05:02;;;;;;;2.10;1.43;;;12.10;99.90;;;;;;4910969;29;20534;-91
2021/03/11 12:07:28;;;;;;;4.83;4.43;;;12.10;99.90;;;;;;4907943;29;20447;-91
2021/03/11 12:09:58;;;;;;;1.57;1.00;;;12.10;99.90;;;;;;4904342;29;20466;-94
2021/03/11 12:12:24;;;;;;;1.90;0.83;;;12.20;99.90;;;;;;4906428;29;20250;-93
2021/03/11 12:14:50;;;;;;;1.00;0.87;;;12.20;99.90;;;;;;4906420;29;20448;-94
2021/03/11 12:17:15;;;;;;;2.30;1.00;;;12.30;99.90;;;;;;4909538;29;20479;-92
2021/03/11 12:19:41;;;;;;;0.70;0.70;;;12.50;99.90;;;;;;4905595;29;20207;-89
2021/03/11 12:22:09;;;;;;;1.90;0.90;;;12.50;99.90;;;;;;4905878;29;20203;-93
2021/03/11 12:24:34;;;;;;;0.87;0.87;;;12.60;99.90;;;;;;4909401;29;20231;-91
2021/03/11 12:27:00;;;;;;;2.03;1.03;;;12.60;99.90;;;;;;4908238;29;20531;-92
2021/03/11 12:29:27;;;;;;;1.80;1.07;;;12.70;99.90;;;;;;4901292;29;20990;-92
2021/03/11 12:31:52;;;;;;;1.47;1.37;;;12.70;99.90;;;;;;4911102;29;20661;-91
2021/03/11 12:34:18;;;;;;;1.00;0.90;;;12.70;99.90;;;;;;4907193;29;20447;-89
2021/03/11 12:36:44;;;;;;;1.50;1.10;;;12.80;99.90;;;;;;4908095;29;20215;-90
2021/03/11 12:39:10;;;;;;;1.93;1.03;;;13.10;99.90;;;;;;4905451;29;20754;-90
2021/03/11 12:41:36;;;;;;;2.20;1.00;;;13.20;99.90;;;;;;4907682;29;20565;-91
2021/03/11 12:44:02;;;;;;;0.73;0.73;;;13.20;99.90;;;;;;4908899;29;20199;-90
2021/03/11 12:46:30;;;;;;;1.10;0.83;;;13.10;99.90;;;;;;4910763;29;20218;-93
2021/03/11 12:49:08;;;;;;;1.53;0.80;;;13.10;99.90;;;;;;4905412;29;20483;-93
2021/03/11 12:51:33;;;;;;;2.17;0.90;;;12.90;99.90;;;;;;4908801;29;20436;-91
2021/03/11 12:53:59;;;;;;;1.70;0.90;;;13.00;99.90;;;;;;4909726;29;20514;-90
2021/03/11 12:56:39;;;;;;;2.63;1.07;;;13.00;99.90;;;;;;4905788;29;20240;-89
2021/03/11 12:59:04;;;;;;;2.30;1.30;;;13.20;99.90;;;;;;4895956;29;20286;-93
2021/03/11 13:01:30;;;;;;;0.80;0.80;;;13.30;99.90;;;;;;4902070;29;20946;-88
2021/03/11 13:03:59;;;;;;;1.20;1.10;;;13.20;99.90;;;;;;4909693;29;20192;-94
2021/03/11 13:06:27;;;;;;;0.77;0.77;;;13.50;99.90;;;;;;4903480;29;20188;-95
2021/03/11 13:08:53;;;;;;;1.17;1.00;;;13.50;99.90;;;;;;4903572;29;20954;-90
2021/03/11 13:11:21;;;;;;;0.73;0.73;;;13.40;99.90;;;;;;4905591;29;20460;-94
2021/03/11 13:13:46;;;;;;;1.30;0.87;;;13.30;99.90;;;;;;4903441;29;20207;-91
2021/03/11 13:16:12;;;;;;;1.60;1.50;;;13.20;99.90;;;;;;4898844;29;20481;-89
2021/03/11 13:18:38;;;;;;;0.90;0.70;;;13.00;99.90;;;;;;4905671;29;20576;-93
2021/03/11 13:21:04;;;;;;;1.73;0.80;;;13.00;99.90;;;;;;4903591;29;20208;-91
2021/03/11 13:23:30;;;;;;;1.10;1.10;;;12.90;99.90;;;;;;4905217;29;21236;-90
2021/03/11 13:25:56;;;;;;;1.07;0.97;;;12.80;99.90;;;;;;4923373;29;20882;-93
2021/03/11 13:28:21;;;;;;;0.83;0.80;;;12.80;99.90;;;;;;4919339;29;20500;-92
2021/03/11 13:30:52;;;;;;;0.70;0.70;;;13.00;99.90;;;;;;4901182;29;20613;-91
2021/03/11 13:33:18;;;;;;;1.80;0.90;;;13.50;99.90;;;;;;4901672;29;20219;-93
2021/03/11 13:35:44;;;;;;;0.87;0.80;;;13.60;99.90;;;;;;4901698;29;20475;-92
2021/03/11 13:38:09;;;;;;;1.30;0.80;;;13.90;99.90;;;;;;4904974;29;20286;-92
2021/03/11 13:40:35;;;;;;;1.17;0.87;;;13.80;99.90;;;;;;4902777;29;20192;-91
2021/03/11 13:43:01;;;;;;;1.13;1.03;;;13.70;99.90;;;;;;4899726;29;20374;-95
2021/03/11 13:45:29;;;;;;;1.00;0.87;;;13.90;99.90;;;;;;4909549;29;20196;-93
2021/03/11 13:47:55;;;;;;;1.37;1.27;;;15.10;99.90;;;;;;4906808;29;20498;-93
2021/03/11 13:50:25;;;;;;;0.97;0.77;;;15.30;99.90;;;;;;4908262;29;20988;-92
2021/03/11 13:52:51;;;;;;;1.00;0.90;;;16.00;99.90;;;;;;4908320;29;20466;-93